Latest Weather Observations for Archerfield

IDQ60801

Issued at 3:35 pm EST Wednesday 23 July 2014 (issued every 30 minutes, with the page automatically refreshed every 10 minutes)

About weather observations | Map of weather stations | Latest weather observations for QLD | Other Formats
Station Details ID: 040211 Name: ARCHERFIELD AIRPORT Lat: -27.57 Lon: 153.01 Height: 12.5 m
Data from the previous 72 hours. | See also: Recent months at Archerfield
Date/Time
EST
Temp
°C
App
Temp
°C
Dew
Point
Rel
Hum
%
Delta-T
°C
Wind Press
QNH
hPa
Press
MSL
hPa
Rain
since 9 am
mm
Dir
 
Spd
km/h
Gust
km/h
Spd
kts
Gust
kts
23/03:30pm 21.2 18.0 10.1 49 6.0 NE 17 20 9 11 1020.2 - 0.0
23/03:00pm 22.5 21.2 7.5 38 7.8 W 4 9 2 5 1020.1 1020.0 0.0
23/02:30pm 21.2 18.9 7.4 41 7.1 SW 9 11 5 6 1020.0 - 0.0
23/02:00pm 21.2 19.2 8.5 44 6.7 WSW 9 17 5 9 1020.1 - 0.0
23/01:30pm 21.1 19.1 8.7 45 6.5 E 9 19 5 10 1020.2 - 0.0
23/01:00pm 20.2 17.5 8.8 48 6.0 SSE 13 19 7 10 1020.4 - 0.0
23/12:30pm 20.5 18.6 9.1 48 6.0 S 9 19 5 10 1020.8 - 0.0
23/12:00pm 20.3 17.6 8.9 48 6.0 SE 13 22 7 12 1021.6 1021.5 0.0
23/11:30am 19.2 16.5 9.1 52 5.3 S 13 20 7 11 1022.2 - 0.0
23/11:00am 18.3 16.2 9.9 58 4.5 S 11 17 6 9 1022.7 - 0.0
23/10:30am 17.2 14.8 9.9 62 3.8 S 13 17 7 9 1023.3 - 0.0
23/10:00am 16.5 13.8 10.4 67 3.2 S 15 20 8 11 1023.5 - 0.0
23/09:30am 14.9 12.8 9.9 72 2.6 SSW 11 17 6 9 1023.8 - 0.0
23/09:00am 13.6 10.9 10.2 80 1.8 SW 15 19 8 10 1023.7 1023.6 1.6
23/08:30am 12.4 10.4 10.3 87 1.1 SW 11 19 6 10 1023.6 - 1.6
23/08:00am 10.9 9.2 10.0 94 0.5 SW 9 13 5 7 1023.3 - 1.6
23/07:30am 9.2 7.3 8.9 98 0.1 SW 9 11 5 6 1022.9 - 1.6
23/07:00am 7.9 6.0 7.6 98 0.1 SSW 7 9 4 5 1022.6 - 1.6
23/06:30am 7.5 5.1 7.2 98 0.1 S 9 9 5 5 1022.1 - 1.6
23/06:00am 7.0 4.5 6.7 98 0.1 S 9 11 5 6 1021.6 1021.5 1.6
23/05:32am 7.6 5.3 7.3 98 0.1 S 9 11 5 6 1021.4 - 1.6
23/05:30am 7.7 5.8 7.4 98 0.1 S 7 9 4 5 1021.3 - 1.6
23/05:00am 6.7 5.1 6.3 97 0.2 S 4 6 2 3 1021.3 - 1.6
23/04:30am 8.4 6.6 8.1 98 0.1 S 7 9 4 5 1021.0 - 1.6
23/04:00am 8.2 6.4 7.9 98 0.1 S 7 9 4 5 1020.8 - 1.6
23/03:30am 8.9 7.4 8.6 98 0.1 SSW 6 6 3 3 1020.9 - 1.6
23/03:00am 9.1 8.5 8.8 98 0.1 S 2 7 1 4 1021.0 1020.9 1.6
23/02:30am 7.4 5.9 7.0 97 0.2 WSW 4 6 2 3 1021.2 - 1.6
23/02:10am 7.2 5.1 6.8 97 0.2 SW 7 9 4 5 1021.4 - 1.6
23/02:03am 8.3 6.1 7.9 97 0.2 SSW 9 11 5 6 1021.4 - 1.6
23/02:00am 8.4 6.3 8.1 98 0.1 SSW 9 11 5 6 1021.5 - 1.6
23/01:30am 7.2 6.4 6.6 96 0.3 SSW 0 0 0 0 1021.3 - 1.6
23/01:00am 9.5 7.6 9.2 98 0.1 SSW 9 11 5 6 1021.2 - 1.6
23/12:30am 9.3 9.0 8.7 96 0.3 CALM 0 0 0 0 1021.2 - 1.6
23/12:16am 10.2 9.0 9.7 97 0.3 S 6 9 3 5 1021.3 - 1.6
23/12:15am 10.3 9.2 9.8 97 0.3 S 6 9 3 5 1021.3 - 1.6
23/12:00am 10.3 8.6 9.8 97 0.3 S 9 11 5 6 1021.6 1021.5 1.6
 
Date/Time
EST
Temp
°C
App
Temp
°C
Dew
Point
Rel
Hum
%
Delta-T
°C
Wind Press
QNH
hPa
Press
MSL
hPa
Rain
since 9 am
mm
Dir
 
Spd
km/h
Gust
km/h
Spd
kts
Gust
kts
22/11:34pm 10.6 9.3 9.8 95 0.4 S 7 9 4 5 1021.7 - 1.6
22/11:30pm 10.7 9.4 9.9 95 0.4 S 7 7 4 4 1021.6 - 1.6
22/11:00pm 11.9 10.9 11.1 95 0.4 S 7 9 4 5 1021.9 - 1.6
22/10:48pm 12.3 12.1 11.7 96 0.3 SW 4 7 2 4 1021.9 - 1.6
22/10:30pm 11.9 12.3 11.3 96 0.3 CALM 0 0 0 0 1022.0 - 1.6
22/10:00pm 12.3 11.7 11.7 96 0.3 SSW 6 7 3 4 1022.0 - 1.6
22/09:55pm 12.2 11.6 11.6 96 0.3 SSW 6 7 3 4 1022.0 - 1.6
22/09:30pm 12.0 11.1 11.2 95 0.4 WSW 7 9 4 5 1021.9 - 1.6
22/09:00pm 12.9 11.8 12.0 94 0.5 S 9 11 5 6 1022.0 1021.9 1.6
22/08:30pm 13.0 12.4 12.2 95 0.4 S 7 9 4 5 1021.8 - 1.6
22/08:00pm 13.2 12.7 11.9 92 0.7 SE 6 11 3 6 1021.7 - 1.6
22/07:30pm 13.1 12.6 12.2 94 0.5 SSE 6 7 3 4 1021.5 - 1.6
22/07:00pm 13.0 12.5 12.1 94 0.5 W 6 7 3 4 1021.2 - 1.4
22/06:30pm 13.5 14.2 12.2 92 0.7 CALM 0 0 0 0 1020.7 - 1.4
22/06:00pm 13.7 13.2 12.1 90 0.9 NE 6 7 3 4 1020.6 1020.5 1.4
22/05:30pm 14.3 15.0 12.3 88 1.1 CALM 0 2 0 1 1020.6 - 1.4
22/05:00pm 14.3 13.3 12.2 87 1.1 E 9 13 5 7 1020.0 - 1.4
22/04:30pm 14.2 10.9 11.5 84 1.4 E 20 33 11 18 1019.6 - 1.4
22/04:00pm 17.3 15.4 11.8 70 3.0 E 13 19 7 10 1019.5 - 0.0
22/03:30pm 18.7 15.4 11.5 63 3.9 E 20 26 11 14 1018.8 - 0.0
22/03:00pm 19.6 16.4 11.4 59 4.5 ESE 19 26 10 14 1018.4 1018.3 0.0
22/02:30pm 22.6 21.3 10.1 45 6.8 SE 7 11 4 6 1018.1 - 0.0
22/02:00pm 21.6 20.2 9.5 46 6.5 N 7 13 4 7 1018.4 - 0.0
22/01:30pm 21.7 20.6 10.8 50 6.0 SW 7 13 4 7 1018.8 - 0.0
22/01:00pm 20.7 19.8 10.8 53 5.4 NNW 6 13 3 7 1019.2 - 0.0
22/12:30pm 20.0 19.1 11.2 57 4.8 W 7 11 4 6 1019.9 - 0.0
22/12:00pm 19.0 18.4 11.8 63 4.0 W 6 11 3 6 1020.6 1020.5 0.0
22/11:30am 18.1 17.1 12.3 69 3.2 WSW 9 13 5 7 1021.2 - 0.0
22/11:00am 17.1 15.8 11.2 68 3.2 SSW 9 17 5 9 1021.9 - 0.0
22/10:30am 16.8 16.5 11.3 70 3.0 WSW 4 9 2 5 1022.2 - 0.0
22/10:00am 16.1 14.4 11.1 72 2.7 SW 11 15 6 8 1022.6 - 0.0
22/09:30am 15.4 13.2 10.8 74 2.4 SW 13 17 7 9 1022.8 - 0.0
22/09:00am 14.6 13.7 11.4 81 1.7 SW 7 11 4 6 1022.7 1022.6 0.0
22/08:30am 13.7 12.9 11.6 87 1.1 SSW 7 11 4 6 1022.8 - 0.0
22/08:00am 11.9 11.9 11.0 94 0.5 SSW 2 7 1 4 1022.6 - 0.0
22/07:30am 10.6 10.7 10.1 97 0.3 CALM 0 6 0 3 1022.4 - 0.0
22/07:19am 9.9 9.8 9.4 97 0.2 CALM 0 6 0 3 1022.2 - 0.0
22/07:11am 8.7 8.3 8.1 96 0.3 CALM 0 0 0 0 1022.2 - 0.0
22/07:00am 7.5 6.8 6.9 96 0.3 CALM 0 0 0 0 1022.0 - 0.0
22/06:51am 7.8 7.2 7.2 96 0.3 CALM 0 0 0 0 1021.9 - 0.0
22/06:38am 7.1 6.3 6.4 95 0.3 CALM 0 0 0 0 1021.9 - 0.0
22/06:30am 6.4 5.4 5.5 94 0.4 CALM 0 0 0 0 1021.7 - 0.0
22/06:00am 7.0 6.1 6.1 94 0.4 CALM 0 0 0 0 1021.6 1021.5 0.0
22/05:30am 6.9 5.2 5.7 92 0.5 S 4 6 2 3 1021.4 - 0.0
22/05:02am 8.8 7.2 8.2 96 0.3 S 6 7 3 4 1021.1 - 0.0
22/05:00am 8.7 7.5 8.1 96 0.3 SSE 4 7 2 4 1021.0 - 0.0
22/04:38am 8.5 7.9 7.6 94 0.4 CALM 0 0 0 0 1021.0 - 0.0
22/04:30am 8.4 7.8 7.3 93 0.5 CALM 0 0 0 0 1020.9 - 0.0
22/04:00am 9.1 8.7 8.2 94 0.4 CALM 0 0 0 0 1020.9 - 0.0
22/03:30am 9.1 7.4 8.2 94 0.4 SSW 7 9 4 5 1021.2 - 0.0
22/03:00am 9.2 7.4 8.0 92 0.6 S 7 7 4 4 1021.3 1021.2 0.0
22/02:30am 10.1 9.2 9.2 94 0.4 SE 4 6 2 3 1021.2 - 0.0
22/02:00am 10.1 9.9 8.9 92 0.6 CALM 0 0 0 0 1021.2 - 0.0
22/01:30am 10.0 9.0 8.8 92 0.6 SSW 4 6 2 3 1021.4 - 0.0
22/01:00am 9.9 9.4 7.8 87 1.0 CALM 0 0 0 0 1021.7 - 0.0
22/12:30am 11.9 10.9 10.3 90 0.8 S 6 7 3 4 1021.8 - 0.0
22/12:00am 12.5 11.5 10.4 87 1.1 S 6 7 3 4 1022.0 1021.9 0.0
 
Date/Time
EST
Temp
°C
App
Temp
°C
Dew
Point
Rel
Hum
%
Delta-T
°C
Wind Press
QNH
hPa
Press
MSL
hPa
Rain
since 9 am
mm
Dir
 
Spd
km/h
Gust
km/h
Spd
kts
Gust
kts
21/11:30pm 13.4 12.2 10.4 82 1.6 S 7 9 4 5 1022.2 - 0.0
21/11:00pm 13.9 13.1 11.2 84 1.4 WSW 6 9 3 5 1022.4 - 0.0
21/10:30pm 14.0 12.9 10.8 81 1.7 S 7 7 4 4 1022.4 - 0.0
21/10:00pm 14.5 13.5 11.1 80 1.8 SW 7 9 4 5 1022.5 - 0.0
21/09:30pm 15.2 14.3 11.4 78 2.0 ESE 7 9 4 5 1022.3 - 0.0
21/09:00pm 15.1 13.4 11.1 77 2.1 SE 11 17 6 9 1022.1 1022.0 0.0
21/08:30pm 15.9 13.8 11.3 74 2.5 ESE 13 19 7 10 1022.2 - 0.0
21/08:00pm 16.4 14.9 12.0 75 2.4 ESE 11 15 6 8 1022.3 - 0.0
21/07:30pm 16.2 14.8 12.2 77 2.2 ESE 11 15 6 8 1022.1 - 0.0
21/07:00pm 16.3 15.1 11.7 74 2.5 ENE 9 13 5 7 1022.0 - 0.0
21/06:30pm 17.0 15.4 11.7 71 2.9 E 11 17 6 9 1021.7 - 0.0
21/06:00pm 17.5 15.4 11.1 66 3.4 E 13 19 7 10 1021.4 1021.3 0.0
21/05:30pm 18.2 15.7 11.0 63 3.9 E 15 20 8 11 1021.1 - 0.0
21/05:00pm 18.7 16.4 10.5 59 4.4 E 13 17 7 9 1020.9 - 0.0
21/04:30pm 19.0 15.6 10.6 58 4.5 E 19 26 10 14 1020.6 - 0.0
21/04:00pm 20.2 16.5 10.3 53 5.3 E 20 28 11 15 1020.2 - 0.0
21/03:30pm 21.5 18.7 11.5 53 5.6 ENE 17 24 9 13 1020.0 - 0.0
21/03:00pm 20.8 18.0 10.0 50 5.8 E 15 20 8 11 1020.0 1019.9 0.0
21/02:30pm 21.0 17.5 10.2 50 5.9 E 19 24 10 13 1020.0 - 0.0
21/02:00pm 21.2 18.0 9.8 48 6.1 E 17 22 9 12 1019.8 - 0.0
21/01:30pm 20.5 17.2 10.9 54 5.3 SE 19 28 10 15 1020.0 - 0.0
21/01:00pm 20.1 16.7 11.3 57 4.8 SE 20 26 11 14 1020.4 - 0.0
21/12:30pm 20.5 17.3 11.2 55 5.1 ESE 19 24 10 13 1020.7 - 0.0
21/12:00pm 20.2 18.4 10.9 55 5.1 SSE 11 19 6 10 1021.4 1021.3 0.0
21/11:30am 20.0 18.3 11.2 57 4.8 SSE 11 17 6 9 1022.0 - 0.0
21/11:00am 19.9 18.3 11.4 58 4.7 SSE 11 19 6 10 1022.6 - 0.0
21/10:30am 18.8 17.1 11.1 61 4.2 S 11 19 6 10 1023.0 - 0.0
21/10:00am 17.7 15.8 10.6 63 3.8 SSW 11 15 6 8 1023.2 - 0.0
21/09:30am 17.0 14.7 10.4 65 3.5 SSW 13 17 7 9 1023.4 - 0.0
21/09:00am 15.7 13.6 9.8 68 3.1 SW 11 19 6 10 1023.6 1023.5 0.0
21/08:30am 14.3 12.1 9.5 73 2.5 WSW 11 15 6 8 1023.6 - 0.0
21/08:00am 12.2 11.0 9.6 84 1.3 SW 6 9 3 5 1023.5 - 0.0
21/07:30am 9.6 7.4 7.9 89 0.8 SW 9 11 5 6 1023.2 - 0.0
21/07:00am 8.0 5.9 6.6 91 0.6 SSW 7 9 4 5 1022.6 - 0.0
21/06:30am 6.8 5.8 5.4 91 0.6 CALM 0 0 0 0 1022.4 - 0.0
21/06:00am 8.4 6.4 7.0 91 0.6 SW 7 11 4 6 1022.0 1021.9 0.0
21/05:30am 7.2 6.3 6.1 93 0.5 CALM 0 0 0 0 1021.9 - 0.0
21/05:00am 7.4 5.3 5.7 89 0.8 S 6 7 3 4 1021.5 - 0.0
21/04:30am 6.7 4.7 4.5 86 1.0 SW 4 6 2 3 1021.3 - 0.0
21/04:00am 7.8 6.9 5.9 88 0.9 CALM 0 0 0 0 1021.3 - 0.0
21/03:30am 8.1 7.2 5.9 86 1.0 CALM 0 0 0 0 1021.3 - 0.0
21/03:00am 8.9 6.4 6.7 86 1.0 WSW 9 11 5 6 1021.4 1021.3 0.0
21/02:30am 7.2 5.5 3.8 79 1.5 SSW 2 6 1 3 1021.4 - 0.0
21/02:00am 10.0 7.5 6.7 80 1.5 S 9 9 5 5 1021.4 - 0.0
21/01:30am 10.5 8.4 6.8 78 1.7 SSW 7 9 4 5 1021.7 - 0.0
21/01:00am 10.9 9.2 7.4 79 1.7 SW 6 7 3 4 1022.0 - 0.0
21/12:30am 10.2 8.8 7.4 83 1.3 W 4 6 2 3 1022.0 - 0.0
21/12:00am 9.8 7.8 6.9 82 1.4 SSW 7 9 4 5 1021.9 1021.8 0.0
 
Date/Time
EST
Temp
°C
App
Temp
°C
Dew
Point
Rel
Hum
%
Delta-T
°C
Wind Press
QNH
hPa
Press
MSL
hPa
Rain
since 9 am
mm
Dir
 
Spd
km/h
Gust
km/h
Spd
kts
Gust
kts
20/11:30pm 10.9 9.8 6.8 76 1.9 ESE 2 7 1 4 1021.8 - 0.0
20/11:00pm 11.1 9.3 7.8 80 1.6 S 7 9 4 5 1021.9 - 0.0
20/10:30pm 9.4 8.5 6.1 80 1.5 CALM 0 4 0 2 1022.1 - 0.0
20/10:00pm 11.3 10.6 6.8 74 2.1 CALM 0 0 0 0 1021.9 - 0.0
20/09:30pm 12.0 11.2 6.7 70 2.5 CALM 0 0 0 0 1021.9 - 0.0
20/09:00pm 11.7 10.5 6.4 70 2.5 NE 2 6 1 3 1021.7 1021.6 0.0
20/08:30pm 13.1 11.3 7.1 67 2.9 S 6 7 3 4 1021.4 - 0.0
20/08:00pm 14.1 12.1 7.2 63 3.4 S 7 9 4 5 1021.4 - 0.0
20/07:30pm 14.2 12.3 6.6 60 3.7 S 6 7 3 4 1021.2 - 0.0
20/07:00pm 15.0 12.5 6.6 57 4.1 SSE 9 11 5 6 1020.9 - 0.0
20/06:30pm 16.2 13.8 6.9 54 4.6 SSE 9 9 5 5 1020.5 - 0.0
20/06:00pm 17.0 14.2 6.8 51 5.0 S 11 13 6 7 1020.2 1020.1 0.0
20/05:30pm 17.3 16.2 6.8 50 5.2 SSW 2 9 1 5 1019.9 - 0.0
20/05:00pm 19.0 17.2 7.1 46 6.0 SSE 6 7 3 4 1019.6 - 0.0
20/04:30pm 20.2 16.6 6.9 42 6.7 E 15 20 8 11 1019.2 - 0.0
20/04:00pm 21.5 18.0 7.0 39 7.4 SSW 15 20 8 11 1018.9 - 0.0

Other Formats:

Comma delimited format used in spreadsheet applications
http://www.bom.gov.au/fwo/IDQ60801/IDQ60801.94575.axf

JavaScript Object Notation format (JSON) in row-major order
http://www.bom.gov.au/fwo/IDQ60801/IDQ60801.94575.json